sensor_id;sensor_type;location;lat;lon;timestamp;P1;durP1;ratioP1;P2;durP2;ratioP2
42886;SDS011;29032;56.028;92.904;2023-12-20T00:03:12;25.63;;;10.43;;
42886;SDS011;29032;56.028;92.904;2023-12-20T00:08:16;38.60;;;16.50;;
42886;SDS011;29032;56.028;92.904;2023-12-20T00:13:18;54.20;;;21.10;;
42886;SDS011;29032;56.028;92.904;2023-12-20T00:18:20;47.83;;;19.13;;
42886;SDS011;29032;56.028;92.904;2023-12-20T00:23:24;43.37;;;18.03;;
42886;SDS011;29032;56.028;92.904;2023-12-20T00:28:26;33.83;;;14.93;;
42886;SDS011;29032;56.028;92.904;2023-12-20T00:33:28;44.73;;;16.53;;
42886;SDS011;29032;56.028;92.904;2023-12-20T00:38:32;34.47;;;13.93;;
42886;SDS011;29032;56.028;92.904;2023-12-20T00:43:34;40.27;;;14.97;;
42886;SDS011;29032;56.028;92.904;2023-12-20T00:48:36;34.73;;;14.63;;
42886;SDS011;29032;56.028;92.904;2023-12-20T00:53:40;33.20;;;14.93;;
42886;SDS011;29032;56.028;92.904;2023-12-20T00:58:42;27.57;;;13.50;;
42886;SDS011;29032;56.028;92.904;2023-12-20T01:03:44;34.40;;;13.23;;
42886;SDS011;29032;56.028;92.904;2023-12-20T01:08:48;30.80;;;12.63;;
42886;SDS011;29032;56.028;92.904;2023-12-20T01:13:50;30.63;;;13.30;;
42886;SDS011;29032;56.028;92.904;2023-12-20T01:18:52;28.90;;;12.87;;
42886;SDS011;29032;56.028;92.904;2023-12-20T01:23:56;37.40;;;13.73;;
42886;SDS011;29032;56.028;92.904;2023-12-20T01:28:58;37.63;;;13.03;;
42886;SDS011;29032;56.028;92.904;2023-12-20T01:34:01;21.83;;;11.83;;
42886;SDS011;29032;56.028;92.904;2023-12-20T01:39:04;23.93;;;11.27;;
42886;SDS011;29032;56.028;92.904;2023-12-20T01:44:06;31.50;;;13.17;;
42886;SDS011;29032;56.028;92.904;2023-12-20T01:49:09;31.83;;;13.50;;
42886;SDS011;29032;56.028;92.904;2023-12-20T01:54:12;30.37;;;14.00;;
42886;SDS011;29032;56.028;92.904;2023-12-20T01:59:15;34.80;;;13.23;;
42886;SDS011;29032;56.028;92.904;2023-12-20T02:04:18;39.03;;;14.13;;
42886;SDS011;29032;56.028;92.904;2023-12-20T02:09:21;43.07;;;15.90;;
42886;SDS011;29032;56.028;92.904;2023-12-20T02:14:24;37.33;;;15.23;;
42886;SDS011;29032;56.028;92.904;2023-12-20T02:19:26;28.90;;;13.90;;
42886;SDS011;29032;56.028;92.904;2023-12-20T02:24:30;44.57;;;16.63;;
42886;SDS011;29032;56.028;92.904;2023-12-20T02:29:32;54.20;;;16.40;;
42886;SDS011;29032;56.028;92.904;2023-12-20T02:34:35;37.13;;;18.90;;
42886;SDS011;29032;56.028;92.904;2023-12-20T02:39:38;46.83;;;18.83;;
42886;SDS011;29032;56.028;92.904;2023-12-20T02:44:41;38.47;;;15.50;;
42886;SDS011;29032;56.028;92.904;2023-12-20T02:49:43;41.43;;;14.60;;
42886;SDS011;29032;56.028;92.904;2023-12-20T02:54:46;38.93;;;15.07;;
42886;SDS011;29032;56.028;92.904;2023-12-20T02:59:49;34.47;;;14.77;;
42886;SDS011;29032;56.028;92.904;2023-12-20T03:04:51;40.00;;;16.57;;
42886;SDS011;29032;56.028;92.904;2023-12-20T03:09:55;44.80;;;15.60;;
42886;SDS011;29032;56.028;92.904;2023-12-20T03:14:57;49.93;;;20.13;;
42886;SDS011;29032;56.028;92.904;2023-12-20T03:19:59;48.37;;;18.23;;
42886;SDS011;29032;56.028;92.904;2023-12-20T03:25:03;46.13;;;16.53;;
42886;SDS011;29032;56.028;92.904;2023-12-20T03:30:06;45.27;;;19.97;;
42886;SDS011;29032;56.028;92.904;2023-12-20T03:35:09;53.07;;;20.60;;
42886;SDS011;29032;56.028;92.904;2023-12-20T03:40:12;42.60;;;19.50;;
42886;SDS011;29032;56.028;92.904;2023-12-20T03:45:15;53.27;;;22.57;;
42886;SDS011;29032;56.028;92.904;2023-12-20T03:50:17;62.97;;;20.83;;
42886;SDS011;29032;56.028;92.904;2023-12-20T03:55:20;54.43;;;22.63;;
42886;SDS011;29032;56.028;92.904;2023-12-20T04:00:23;54.00;;;19.03;;
42886;SDS011;29032;56.028;92.904;2023-12-20T04:05:25;57.73;;;21.50;;
42886;SDS011;29032;56.028;92.904;2023-12-20T04:10:29;52.07;;;20.63;;
42886;SDS011;29032;56.028;92.904;2023-12-20T04:15:31;49.30;;;21.10;;
42886;SDS011;29032;56.028;92.904;2023-12-20T04:20:33;55.60;;;23.13;;
42886;SDS011;29032;56.028;92.904;2023-12-20T04:25:37;63.00;;;26.67;;
42886;SDS011;29032;56.028;92.904;2023-12-20T04:30:39;65.07;;;23.03;;
42886;SDS011;29032;56.028;92.904;2023-12-20T04:35:41;46.80;;;19.73;;
42886;SDS011;29032;56.028;92.904;2023-12-20T04:40:45;34.77;;;15.57;;
42886;SDS011;29032;56.028;92.904;2023-12-20T04:45:47;34.83;;;12.87;;
42886;SDS011;29032;56.028;92.904;2023-12-20T04:50:49;25.07;;;10.87;;
42886;SDS011;29032;56.028;92.904;2023-12-20T04:55:53;24.40;;;11.53;;
42886;SDS011;29032;56.028;92.904;2023-12-20T05:00:55;25.83;;;11.57;;
42886;SDS011;29032;56.028;92.904;2023-12-20T05:05:58;26.63;;;13.33;;
42886;SDS011;29032;56.028;92.904;2023-12-20T05:11:01;33.97;;;12.93;;
42886;SDS011;29032;56.028;92.904;2023-12-20T05:16:05;31.67;;;13.90;;
42886;SDS011;29032;56.028;92.904;2023-12-20T05:21:07;40.07;;;15.10;;
42886;SDS011;29032;56.028;92.904;2023-12-20T05:26:11;39.63;;;14.90;;
42886;SDS011;29032;56.028;92.904;2023-12-20T05:31:13;74.93;;;26.93;;
42886;SDS011;29032;56.028;92.904;2023-12-20T05:36:15;49.97;;;18.73;;
42886;SDS011;29032;56.028;92.904;2023-12-20T05:41:19;44.67;;;16.83;;
42886;SDS011;29032;56.028;92.904;2023-12-20T05:46:21;48.93;;;17.97;;
42886;SDS011;29032;56.028;92.904;2023-12-20T05:51:23;53.77;;;19.50;;
42886;SDS011;29032;56.028;92.904;2023-12-20T05:56:28;51.63;;;18.53;;
42886;SDS011;29032;56.028;92.904;2023-12-20T06:01:30;43.40;;;16.73;;
42886;SDS011;29032;56.028;92.904;2023-12-20T06:06:32;41.80;;;17.23;;
42886;SDS011;29032;56.028;92.904;2023-12-20T06:11:36;42.43;;;16.03;;
42886;SDS011;29032;56.028;92.904;2023-12-20T06:16:38;33.93;;;14.50;;
42886;SDS011;29032;56.028;92.904;2023-12-20T06:21:40;32.30;;;13.87;;
42886;SDS011;29032;56.028;92.904;2023-12-20T06:26:44;36.53;;;14.60;;
42886;SDS011;29032;56.028;92.904;2023-12-20T06:31:46;36.40;;;15.17;;
42886;SDS011;29032;56.028;92.904;2023-12-20T06:36:48;46.67;;;14.97;;
42886;SDS011;29032;56.028;92.904;2023-12-20T06:41:52;38.67;;;14.97;;
42886;SDS011;29032;56.028;92.904;2023-12-20T06:46:54;46.60;;;15.27;;
42886;SDS011;29032;56.028;92.904;2023-12-20T06:51:57;46.23;;;18.20;;
42886;SDS011;29032;56.028;92.904;2023-12-20T06:57:00;53.47;;;19.73;;
42886;SDS011;29032;56.028;92.904;2023-12-20T07:02:03;41.00;;;17.37;;
42886;SDS011;29032;56.028;92.904;2023-12-20T07:07:05;43.03;;;16.50;;
42886;SDS011;29032;56.028;92.904;2023-12-20T07:12:09;46.57;;;16.60;;
42886;SDS011;29032;56.028;92.904;2023-12-20T07:17:11;40.27;;;17.53;;
42886;SDS011;29032;56.028;92.904;2023-12-20T07:22:13;41.30;;;16.37;;
42886;SDS011;29032;56.028;92.904;2023-12-20T07:27:17;42.40;;;16.00;;
42886;SDS011;29032;56.028;92.904;2023-12-20T07:32:19;38.00;;;17.03;;
42886;SDS011;29032;56.028;92.904;2023-12-20T07:37:21;42.40;;;17.03;;
42886;SDS011;29032;56.028;92.904;2023-12-20T07:42:25;40.77;;;16.57;;
42886;SDS011;29032;56.028;92.904;2023-12-20T07:47:27;42.77;;;18.50;;
42886;SDS011;29032;56.028;92.904;2023-12-20T07:52:29;43.63;;;16.33;;
42886;SDS011;29032;56.028;92.904;2023-12-20T07:57:33;45.43;;;17.23;;
42886;SDS011;29032;56.028;92.904;2023-12-20T08:02:35;41.70;;;17.07;;
42886;SDS011;29032;56.028;92.904;2023-12-20T08:07:37;44.60;;;16.43;;
42886;SDS011;29032;56.028;92.904;2023-12-20T08:12:41;37.83;;;16.27;;
42886;SDS011;29032;56.028;92.904;2023-12-20T08:17:43;36.97;;;16.40;;
42886;SDS011;29032;56.028;92.904;2023-12-20T08:22:45;39.70;;;17.10;;
42886;SDS011;29032;56.028;92.904;2023-12-20T08:27:49;38.87;;;17.00;;
42886;SDS011;29032;56.028;92.904;2023-12-20T08:32:51;40.97;;;15.33;;
42886;SDS011;29032;56.028;92.904;2023-12-20T08:37:53;34.53;;;16.03;;
42886;SDS011;29032;56.028;92.904;2023-12-20T08:42:57;40.60;;;15.67;;
42886;SDS011;29032;56.028;92.904;2023-12-20T08:47:59;42.37;;;17.80;;
42886;SDS011;29032;56.028;92.904;2023-12-20T08:53:02;38.03;;;15.47;;
42886;SDS011;29032;56.028;92.904;2023-12-20T08:58:05;42.30;;;15.47;;
42886;SDS011;29032;56.028;92.904;2023-12-20T09:03:08;47.37;;;16.73;;
42886;SDS011;29032;56.028;92.904;2023-12-20T09:08:10;36.43;;;15.93;;
42886;SDS011;29032;56.028;92.904;2023-12-20T09:13:14;34.80;;;15.03;;
42886;SDS011;29032;56.028;92.904;2023-12-20T09:18:16;34.53;;;15.03;;
42886;SDS011;29032;56.028;92.904;2023-12-20T09:23:18;37.57;;;15.73;;
42886;SDS011;29032;56.028;92.904;2023-12-20T09:28:22;31.73;;;14.10;;
42886;SDS011;29032;56.028;92.904;2023-12-20T09:33:24;43.67;;;15.33;;
42886;SDS011;29032;56.028;92.904;2023-12-20T09:38:26;37.93;;;14.07;;
42886;SDS011;29032;56.028;92.904;2023-12-20T09:43:30;42.83;;;18.13;;
42886;SDS011;29032;56.028;92.904;2023-12-20T09:48:36;40.60;;;15.53;;
42886;SDS011;29032;56.028;92.904;2023-12-20T09:53:40;48.23;;;17.30;;
42886;SDS011;29032;56.028;92.904;2023-12-20T09:58:45;51.73;;;16.13;;
42886;SDS011;29032;56.028;92.904;2023-12-20T10:03:47;44.47;;;18.27;;
42886;SDS011;29032;56.028;92.904;2023-12-20T10:08:52;60.47;;;22.63;;
42886;SDS011;29032;56.028;92.904;2023-12-20T10:14:00;48.47;;;21.07;;
42886;SDS011;29032;56.028;92.904;2023-12-20T10:19:02;54.23;;;19.03;;
42886;SDS011;29032;56.028;92.904;2023-12-20T10:24:05;50.40;;;19.27;;
42886;SDS011;29032;56.028;92.904;2023-12-20T10:29:09;50.80;;;18.40;;
42886;SDS011;29032;56.028;92.904;2023-12-20T10:34:12;48.87;;;18.70;;
42886;SDS011;29032;56.028;92.904;2023-12-20T10:39:14;41.83;;;18.47;;
42886;SDS011;29032;56.028;92.904;2023-12-20T10:44:18;40.17;;;16.17;;
42886;SDS011;29032;56.028;92.904;2023-12-20T10:49:20;47.30;;;18.60;;
42886;SDS011;29032;56.028;92.904;2023-12-20T10:54:23;53.53;;;18.50;;
42886;SDS011;29032;56.028;92.904;2023-12-20T10:59:27;54.03;;;18.70;;
42886;SDS011;29032;56.028;92.904;2023-12-20T11:04:33;53.63;;;19.87;;
42886;SDS011;29032;56.028;92.904;2023-12-20T11:09:40;47.37;;;18.17;;
42886;SDS011;29032;56.028;92.904;2023-12-20T11:14:51;45.53;;;17.97;;
42886;SDS011;29032;56.028;92.904;2023-12-20T11:20:04;54.77;;;20.70;;
42886;SDS011;29032;56.028;92.904;2023-12-20T11:25:08;47.03;;;19.23;;
42886;SDS011;29032;56.028;92.904;2023-12-20T11:30:14;50.47;;;19.00;;
42886;SDS011;29032;56.028;92.904;2023-12-20T11:35:16;43.87;;;17.80;;
42886;SDS011;29032;56.028;92.904;2023-12-20T11:40:20;40.37;;;16.13;;
42886;SDS011;29032;56.028;92.904;2023-12-20T11:45:26;39.90;;;15.47;;
42886;SDS011;29032;56.028;92.904;2023-12-20T11:50:29;41.70;;;18.17;;
42886;SDS011;29032;56.028;92.904;2023-12-20T11:55:31;49.17;;;18.40;;
42886;SDS011;29032;56.028;92.904;2023-12-20T12:00:36;39.07;;;16.27;;
42886;SDS011;29032;56.028;92.904;2023-12-20T12:05:38;41.97;;;16.03;;
42886;SDS011;29032;56.028;92.904;2023-12-20T12:10:41;43.13;;;17.70;;
42886;SDS011;29032;56.028;92.904;2023-12-20T12:15:44;36.37;;;15.70;;
42886;SDS011;29032;56.028;92.904;2023-12-20T12:20:47;38.03;;;15.10;;
42886;SDS011;29032;56.028;92.904;2023-12-20T12:25:49;34.40;;;14.70;;
42886;SDS011;29032;56.028;92.904;2023-12-20T12:30:59;38.17;;;15.33;;
42886;SDS011;29032;56.028;92.904;2023-12-20T12:36:01;39.50;;;16.27;;
42886;SDS011;29032;56.028;92.904;2023-12-20T12:41:04;39.13;;;15.80;;
42886;SDS011;29032;56.028;92.904;2023-12-20T12:46:07;40.87;;;15.40;;
42886;SDS011;29032;56.028;92.904;2023-12-20T12:51:10;40.90;;;16.63;;
42886;SDS011;29032;56.028;92.904;2023-12-20T12:56:12;39.43;;;17.27;;
42886;SDS011;29032;56.028;92.904;2023-12-20T13:01:16;44.23;;;18.40;;
42886;SDS011;29032;56.028;92.904;2023-12-20T13:06:19;44.23;;;17.50;;
42886;SDS011;29032;56.028;92.904;2023-12-20T13:11:21;44.37;;;17.17;;
42886;SDS011;29032;56.028;92.904;2023-12-20T13:16:25;33.07;;;15.60;;
42886;SDS011;29032;56.028;92.904;2023-12-20T13:21:27;40.90;;;17.63;;
42886;SDS011;29032;56.028;92.904;2023-12-20T13:26:30;39.33;;;18.90;;
42886;SDS011;29032;56.028;92.904;2023-12-20T13:31:33;45.17;;;18.87;;
42886;SDS011;29032;56.028;92.904;2023-12-20T13:36:36;39.67;;;16.67;;
42886;SDS011;29032;56.028;92.904;2023-12-20T13:41:38;36.93;;;17.13;;
42886;SDS011;29032;56.028;92.904;2023-12-20T13:46:42;41.63;;;16.70;;
42886;SDS011;29032;56.028;92.904;2023-12-20T13:51:44;39.73;;;15.97;;
42886;SDS011;29032;56.028;92.904;2023-12-20T13:56:46;43.93;;;18.77;;
42886;SDS011;29032;56.028;92.904;2023-12-20T14:01:50;42.47;;;18.67;;
42886;SDS011;29032;56.028;92.904;2023-12-20T14:06:52;47.93;;;19.23;;
42886;SDS011;29032;56.028;92.904;2023-12-20T14:11:54;38.87;;;17.43;;
42886;SDS011;29032;56.028;92.904;2023-12-20T14:16:58;45.70;;;18.87;;
42886;SDS011;29032;56.028;92.904;2023-12-20T14:22:00;39.17;;;18.07;;
42886;SDS011;29032;56.028;92.904;2023-12-20T14:27:02;49.87;;;18.77;;
42886;SDS011;29032;56.028;92.904;2023-12-20T14:32:07;44.50;;;19.50;;
42886;SDS011;29032;56.028;92.904;2023-12-20T14:37:09;43.13;;;18.67;;
42886;SDS011;29032;56.028;92.904;2023-12-20T14:42:11;44.17;;;17.57;;
42886;SDS011;29032;56.028;92.904;2023-12-20T14:47:15;45.73;;;17.60;;
42886;SDS011;29032;56.028;92.904;2023-12-20T14:52:17;36.07;;;16.03;;
42886;SDS011;29032;56.028;92.904;2023-12-20T14:57:19;38.00;;;18.07;;
42886;SDS011;29032;56.028;92.904;2023-12-20T15:02:23;45.30;;;19.10;;
42886;SDS011;29032;56.028;92.904;2023-12-20T15:07:25;44.57;;;19.73;;
42886;SDS011;29032;56.028;92.904;2023-12-20T15:12:28;54.93;;;19.73;;
42886;SDS011;29032;56.028;92.904;2023-12-20T15:17:31;52.20;;;20.57;;
42886;SDS011;29032;56.028;92.904;2023-12-20T15:22:34;56.13;;;21.50;;
42886;SDS011;29032;56.028;92.904;2023-12-20T15:27:36;56.17;;;22.03;;
42886;SDS011;29032;56.028;92.904;2023-12-20T15:32:40;61.53;;;23.60;;
42886;SDS011;29032;56.028;92.904;2023-12-20T15:37:42;48.20;;;23.33;;
42886;SDS011;29032;56.028;92.904;2023-12-20T15:42:44;51.83;;;21.97;;
42886;SDS011;29032;56.028;92.904;2023-12-20T15:47:48;61.47;;;23.93;;
42886;SDS011;29032;56.028;92.904;2023-12-20T15:52:50;64.20;;;26.63;;
42886;SDS011;29032;56.028;92.904;2023-12-20T15:57:52;57.37;;;25.10;;
42886;SDS011;29032;56.028;92.904;2023-12-20T16:02:56;57.33;;;23.87;;
42886;SDS011;29032;56.028;92.904;2023-12-20T16:07:58;54.50;;;22.77;;
42886;SDS011;29032;56.028;92.904;2023-12-20T16:13:00;55.43;;;23.73;;
42886;SDS011;29032;56.028;92.904;2023-12-20T16:18:05;55.90;;;23.17;;
42886;SDS011;29032;56.028;92.904;2023-12-20T16:23:07;54.27;;;22.23;;
42886;SDS011;29032;56.028;92.904;2023-12-20T16:28:09;63.53;;;25.13;;
42886;SDS011;29032;56.028;92.904;2023-12-20T16:33:13;59.20;;;24.73;;
42886;SDS011;29032;56.028;92.904;2023-12-20T16:38:15;60.20;;;24.70;;
42886;SDS011;29032;56.028;92.904;2023-12-20T16:43:17;57.73;;;23.07;;
42886;SDS011;29032;56.028;92.904;2023-12-20T16:48:21;59.50;;;25.10;;
42886;SDS011;29032;56.028;92.904;2023-12-20T16:53:23;60.57;;;24.33;;
42886;SDS011;29032;56.028;92.904;2023-12-20T16:58:25;68.40;;;25.83;;
42886;SDS011;29032;56.028;92.904;2023-12-20T17:03:29;59.53;;;25.00;;
42886;SDS011;29032;56.028;92.904;2023-12-20T17:08:32;58.83;;;24.67;;
42886;SDS011;29032;56.028;92.904;2023-12-20T17:13:34;54.40;;;23.00;;
42886;SDS011;29032;56.028;92.904;2023-12-20T17:18:38;56.00;;;22.90;;
42886;SDS011;29032;56.028;92.904;2023-12-20T17:23:40;60.17;;;23.20;;
42886;SDS011;29032;56.028;92.904;2023-12-20T17:28:43;61.23;;;24.00;;
42886;SDS011;29032;56.028;92.904;2023-12-20T17:33:46;61.47;;;24.23;;
42886;SDS011;29032;56.028;92.904;2023-12-20T17:38:48;65.57;;;24.03;;
42886;SDS011;29032;56.028;92.904;2023-12-20T17:43:51;60.33;;;23.83;;
42886;SDS011;29032;56.028;92.904;2023-12-20T17:48:54;57.23;;;24.00;;
42886;SDS011;29032;56.028;92.904;2023-12-20T17:53:57;55.37;;;21.70;;
42886;SDS011;29032;56.028;92.904;2023-12-20T17:58:59;64.10;;;25.43;;
42886;SDS011;29032;56.028;92.904;2023-12-20T18:04:03;63.17;;;25.03;;
42886;SDS011;29032;56.028;92.904;2023-12-20T18:09:05;62.33;;;25.63;;
42886;SDS011;29032;56.028;92.904;2023-12-20T18:14:07;58.30;;;24.13;;
42886;SDS011;29032;56.028;92.904;2023-12-20T18:19:11;63.43;;;25.13;;
42886;SDS011;29032;56.028;92.904;2023-12-20T18:24:13;67.27;;;25.50;;
42886;SDS011;29032;56.028;92.904;2023-12-20T18:29:16;56.33;;;22.90;;
42886;SDS011;29032;56.028;92.904;2023-12-20T18:34:20;56.97;;;22.30;;
42886;SDS011;29032;56.028;92.904;2023-12-20T18:39:22;53.20;;;22.57;;
42886;SDS011;29032;56.028;92.904;2023-12-20T18:44:24;56.60;;;21.07;;
42886;SDS011;29032;56.028;92.904;2023-12-20T18:49:28;49.73;;;19.40;;
42886;SDS011;29032;56.028;92.904;2023-12-20T18:54:30;48.57;;;19.47;;
42886;SDS011;29032;56.028;92.904;2023-12-20T18:59:32;50.47;;;20.83;;
42886;SDS011;29032;56.028;92.904;2023-12-20T19:04:36;38.27;;;17.07;;
42886;SDS011;29032;56.028;92.904;2023-12-20T19:09:38;51.67;;;19.93;;
42886;SDS011;29032;56.028;92.904;2023-12-20T19:14:40;44.93;;;19.00;;
42886;SDS011;29032;56.028;92.904;2023-12-20T19:19:44;49.17;;;19.93;;
42886;SDS011;29032;56.028;92.904;2023-12-20T19:24:46;41.67;;;18.27;;
42886;SDS011;29032;56.028;92.904;2023-12-20T19:29:48;42.53;;;17.93;;
42886;SDS011;29032;56.028;92.904;2023-12-20T19:34:52;43.47;;;17.50;;
42886;SDS011;29032;56.028;92.904;2023-12-20T19:39:54;40.00;;;17.87;;
42886;SDS011;29032;56.028;92.904;2023-12-20T19:44:56;38.87;;;16.80;;
42886;SDS011;29032;56.028;92.904;2023-12-20T19:50:00;41.83;;;17.50;;
42886;SDS011;29032;56.028;92.904;2023-12-20T19:55:03;42.73;;;17.73;;
42886;SDS011;29032;56.028;92.904;2023-12-20T20:00:06;42.47;;;18.27;;
42886;SDS011;29032;56.028;92.904;2023-12-20T20:05:19;41.93;;;18.67;;
42886;SDS011;29032;56.028;92.904;2023-12-20T20:10:21;42.63;;;18.73;;
42886;SDS011;29032;56.028;92.904;2023-12-20T20:15:23;42.87;;;17.63;;
42886;SDS011;29032;56.028;92.904;2023-12-20T20:20:27;39.13;;;17.27;;
42886;SDS011;29032;56.028;92.904;2023-12-20T20:25:29;48.60;;;18.83;;
42886;SDS011;29032;56.028;92.904;2023-12-20T20:30:31;51.00;;;21.20;;
42886;SDS011;29032;56.028;92.904;2023-12-20T20:35:35;45.23;;;21.53;;
42886;SDS011;29032;56.028;92.904;2023-12-20T20:40:37;42.37;;;19.10;;
42886;SDS011;29032;56.028;92.904;2023-12-20T20:45:39;37.30;;;17.33;;
42886;SDS011;29032;56.028;92.904;2023-12-20T20:50:43;42.40;;;16.97;;
42886;SDS011;29032;56.028;92.904;2023-12-20T20:55:45;45.00;;;17.90;;
42886;SDS011;29032;56.028;92.904;2023-12-20T21:00:47;45.80;;;16.70;;
42886;SDS011;29032;56.028;92.904;2023-12-20T21:05:51;33.67;;;15.53;;
42886;SDS011;29032;56.028;92.904;2023-12-20T21:10:53;35.20;;;15.70;;
42886;SDS011;29032;56.028;92.904;2023-12-20T21:15:56;34.43;;;14.83;;
42886;SDS011;29032;56.028;92.904;2023-12-20T21:21:00;32.27;;;14.43;;
42886;SDS011;29032;56.028;92.904;2023-12-20T21:26:02;33.90;;;14.50;;
42886;SDS011;29032;56.028;92.904;2023-12-20T21:31:04;33.17;;;14.70;;
42886;SDS011;29032;56.028;92.904;2023-12-20T21:36:08;39.63;;;16.17;;
42886;SDS011;29032;56.028;92.904;2023-12-20T21:41:10;37.23;;;15.30;;
42886;SDS011;29032;56.028;92.904;2023-12-20T21:46:13;37.73;;;15.47;;
42886;SDS011;29032;56.028;92.904;2023-12-20T21:51:16;37.10;;;15.07;;
42886;SDS011;29032;56.028;92.904;2023-12-20T21:56:18;39.07;;;14.23;;
42886;SDS011;29032;56.028;92.904;2023-12-20T22:01:21;35.87;;;17.10;;
42886;SDS011;29032;56.028;92.904;2023-12-20T22:06:24;37.73;;;15.97;;
42886;SDS011;29032;56.028;92.904;2023-12-20T22:11:27;41.33;;;17.90;;
42886;SDS011;29032;56.028;92.904;2023-12-20T22:16:29;31.63;;;15.20;;
42886;SDS011;29032;56.028;92.904;2023-12-20T22:21:33;37.57;;;17.03;;
42886;SDS011;29032;56.028;92.904;2023-12-20T22:26:35;32.63;;;16.07;;
42886;SDS011;29032;56.028;92.904;2023-12-20T22:31:37;35.80;;;16.37;;
42886;SDS011;29032;56.028;92.904;2023-12-20T22:36:41;40.43;;;16.37;;
42886;SDS011;29032;56.028;92.904;2023-12-20T22:41:43;29.90;;;16.07;;
42886;SDS011;29032;56.028;92.904;2023-12-20T22:46:45;36.47;;;16.07;;
42886;SDS011;29032;56.028;92.904;2023-12-20T22:51:49;28.53;;;10.80;;
42886;SDS011;29032;56.028;92.904;2023-12-20T22:56:51;32.07;;;14.10;;
42886;SDS011;29032;56.028;92.904;2023-12-20T23:01:53;29.50;;;13.13;;
42886;SDS011;29032;56.028;92.904;2023-12-20T23:06:57;32.40;;;13.83;;
42886;SDS011;29032;56.028;92.904;2023-12-20T23:11:59;29.80;;;12.83;;
42886;SDS011;29032;56.028;92.904;2023-12-20T23:17:02;26.03;;;11.90;;
42886;SDS011;29032;56.028;92.904;2023-12-20T23:22:06;17.37;;;7.70;;
42886;SDS011;29032;56.028;92.904;2023-12-20T23:27:08;17.57;;;9.07;;
42886;SDS011;29032;56.028;92.904;2023-12-20T23:32:10;12.27;;;6.40;;
42886;SDS011;29032;56.028;92.904;2023-12-20T23:37:14;14.67;;;6.07;;
42886;SDS011;29032;56.028;92.904;2023-12-20T23:42:16;12.50;;;6.27;;
42886;SDS011;29032;56.028;92.904;2023-12-20T23:47:18;7.30;;;4.30;;
42886;SDS011;29032;56.028;92.904;2023-12-20T23:52:22;4.80;;;3.20;;
42886;SDS011;29032;56.028;92.904;2023-12-20T23:57:24;5.27;;;3.20;;
